Oceanport, NJ

5:51 PM EST on December 22, 2014 (GMT -0500)
Kennedy International | Change Station
CLOSE
Current Station
Airport
Location: New York JFK,
Elevation: 23 ft
Nearby Weather Stations

Elev 23 ft 40.64 °N, 73.76 °W | Updated 1 hour ago

Overcast
Overcast
46 °F
Feels Like 40 °F
N
13
Wind Variable Wind from East

Today
High -- | Low -- °F
--% Chance of Precip.
Yesterday
High -- | Low -- °F
Precip. -- in
7:15 AM 4:33 PM
New Moon, 1% visible
Pressure 30.22 in
Visibility 6.0 miles
Clouds Few 800 ft
Mostly Cloudy 1400 ft
Overcast 2300 ft
Windchill 40 °F
Dew Point 41 °F
Humidity 83%
Rainfall 0.01 in
Snow Depth Not available.
UV 0 out of 12
Pollen .10 out of 12
Air Quality Not available.
Flu Activity Not available.
METAR KJFK 222151Z 08011KT 6SM -RA FEW008 BKN014 OVC023 08/05 A3022 RMK AO2 SLP234 P0001 T00780050 $

More Conditions Fewer Conditions

Pressure 30.22 in
Visibility 6.0 miles
Clouds Few 800 ft
Mostly Cloudy 1400 ft
Overcast 2300 ft
Windchill 40 °F
Dew Point 41 °F
Humidity 83%
Rainfall 0.01 in
Snow Depth Not available.
UV 0 out of 12
Pollen .10 out of 12
Air Quality Not available.
Flu Activity Not available.
METAR KJFK 222151Z 08011KT 6SM -RA FEW008 BKN014 OVC023 08/05 A3022 RMK AO2 SLP234 P0001 T00780050 $

More Conditions Fewer Conditions

10-Day Weather Forecast

Almanac

Astronomy

Dec. 22, 2014 Rise Set
Actual Time
Civil Twilight
Nautical Twilight
Astronomical Twilight
Moon
Length of Visible Light
Length of Day
Tomorrow will be .
, % of the Moon is Illuminated

Today's Extremes

State Highs State Lows

Community

WunderPhotos

Upload Photos

1,779,695 photos uploaded!

WunderBlogs® & News

Nearby

Air Quality

  Air Quality AQ Index Pollutant
Not available.

Snow Depth

Station Depth Elevation

Earthquake Activity

City Distance Mag. Time & Date
Minimum magnitude displayed is 2.5.

Coastal Water Temperatures

Place Temperature

Nearby Weather Stations